sensor_id;sensor_type;location;lat;lon;timestamp;temperature;humidity
27797;DHT22;15177;50.844;4.412;2023-01-29T00:01:45;1.90;99.90
27797;DHT22;15177;50.844;4.412;2023-01-29T00:04:11;1.90;99.90
27797;DHT22;15177;50.844;4.412;2023-01-29T00:06:36;2.00;99.90
27797;DHT22;15177;50.844;4.412;2023-01-29T00:09:02;2.00;99.90
27797;DHT22;15177;50.844;4.412;2023-01-29T00:11:27;1.90;99.90
27797;DHT22;15177;50.844;4.412;2023-01-29T00:13:53;1.90;99.90
27797;DHT22;15177;50.844;4.412;2023-01-29T00:16:19;2.00;99.90
27797;DHT22;15177;50.844;4.412;2023-01-29T00:18:45;2.00;99.90
27797;DHT22;15177;50.844;4.412;2023-01-29T00:21:18;2.00;99.90
27797;DHT22;15177;50.844;4.412;2023-01-29T00:23:45;1.90;99.90
27797;DHT22;15177;50.844;4.412;2023-01-29T00:26:11;1.90;99.90
27797;DHT22;15177;50.844;4.412;2023-01-29T00:28:36;1.90;99.90
27797;DHT22;15177;50.844;4.412;2023-01-29T00:31:13;1.90;99.90
27797;DHT22;15177;50.844;4.412;2023-01-29T00:33:39;1.90;99.90
27797;DHT22;15177;50.844;4.412;2023-01-29T00:36:07;1.90;99.90
27797;DHT22;15177;50.844;4.412;2023-01-29T00:38:33;1.90;99.90
27797;DHT22;15177;50.844;4.412;2023-01-29T00:41:11;2.00;99.90
27797;DHT22;15177;50.844;4.412;2023-01-29T00:43:56;1.90;99.90
27797;DHT22;15177;50.844;4.412;2023-01-29T00:46:40;1.80;99.90
27797;DHT22;15177;50.844;4.412;2023-01-29T00:49:06;1.80;99.90
27797;DHT22;15177;50.844;4.412;2023-01-29T00:51:33;1.90;99.90
27797;DHT22;15177;50.844;4.412;2023-01-29T00:53:59;1.80;99.90
27797;DHT22;15177;50.844;4.412;2023-01-29T00:56:25;1.70;99.90
27797;DHT22;15177;50.844;4.412;2023-01-29T00:58:51;1.70;99.90
27797;DHT22;15177;50.844;4.412;2023-01-29T01:01:16;1.60;99.90
27797;DHT22;15177;50.844;4.412;2023-01-29T01:04:02;1.90;99.90
27797;DHT22;15177;50.844;4.412;2023-01-29T01:06:28;1.80;99.90
27797;DHT22;15177;50.844;4.412;2023-01-29T01:08:53;1.90;99.90
27797;DHT22;15177;50.844;4.412;2023-01-29T01:11:37;1.90;99.90
27797;DHT22;15177;50.844;4.412;2023-01-29T01:14:03;1.90;99.90
27797;DHT22;15177;50.844;4.412;2023-01-29T01:16:28;2.00;99.90
27797;DHT22;15177;50.844;4.412;2023-01-29T01:18:54;2.00;99.90
27797;DHT22;15177;50.844;4.412;2023-01-29T01:21:20;2.00;99.90
27797;DHT22;15177;50.844;4.412;2023-01-29T01:23:45;1.90;99.90
27797;DHT22;15177;50.844;4.412;2023-01-29T01:26:12;1.90;99.90
27797;DHT22;15177;50.844;4.412;2023-01-29T01:28:37;1.90;99.90
27797;DHT22;15177;50.844;4.412;2023-01-29T01:31:11;1.80;99.90
27797;DHT22;15177;50.844;4.412;2023-01-29T01:33:37;1.80;99.90
27797;DHT22;15177;50.844;4.412;2023-01-29T01:36:05;1.80;99.90
27797;DHT22;15177;50.844;4.412;2023-01-29T01:38:37;1.80;99.90
27797;DHT22;15177;50.844;4.412;2023-01-29T01:41:23;1.80;99.90
27797;DHT22;15177;50.844;4.412;2023-01-29T01:44:00;1.80;99.90
27797;DHT22;15177;50.844;4.412;2023-01-29T01:46:34;1.90;99.90
27797;DHT22;15177;50.844;4.412;2023-01-29T01:51:39;1.80;99.90
27797;DHT22;15177;50.844;4.412;2023-01-29T01:54:09;1.80;99.90
27797;DHT22;15177;50.844;4.412;2023-01-29T01:56:40;1.90;99.90
27797;DHT22;15177;50.844;4.412;2023-01-29T01:59:09;1.80;99.90
27797;DHT22;15177;50.844;4.412;2023-01-29T02:01:36;1.80;99.90
27797;DHT22;15177;50.844;4.412;2023-01-29T02:04:08;1.80;99.90
27797;DHT22;15177;50.844;4.412;2023-01-29T02:06:54;1.80;99.90
27797;DHT22;15177;50.844;4.412;2023-01-29T02:09:48;1.80;99.90
27797;DHT22;15177;50.844;4.412;2023-01-29T02:12:17;1.80;99.90
27797;DHT22;15177;50.844;4.412;2023-01-29T02:14:43;1.80;99.90
27797;DHT22;15177;50.844;4.412;2023-01-29T02:17:20;1.80;99.90
27797;DHT22;15177;50.844;4.412;2023-01-29T02:19:57;1.80;99.90
27797;DHT22;15177;50.844;4.412;2023-01-29T02:22:48;1.90;99.90
27797;DHT22;15177;50.844;4.412;2023-01-29T02:28:05;1.80;99.90
27797;DHT22;15177;50.844;4.412;2023-01-29T02:33:59;1.70;99.90
27797;DHT22;15177;50.844;4.412;2023-01-29T02:36:52;1.80;99.90
27797;DHT22;15177;50.844;4.412;2023-01-29T02:39:56;1.80;99.90
27797;DHT22;15177;50.844;4.412;2023-01-29T02:42:39;1.80;99.90
27797;DHT22;15177;50.844;4.412;2023-01-29T02:45:20;1.80;99.90
27797;DHT22;15177;50.844;4.412;2023-01-29T02:47:56;1.80;99.90
27797;DHT22;15177;50.844;4.412;2023-01-29T02:53:00;1.80;99.90
27797;DHT22;15177;50.844;4.412;2023-01-29T02:58:12;1.80;99.90
27797;DHT22;15177;50.844;4.412;2023-01-29T03:00:43;1.80;99.90
27797;DHT22;15177;50.844;4.412;2023-01-29T03:03:20;1.80;99.90
27797;DHT22;15177;50.844;4.412;2023-01-29T03:06:00;1.80;99.90
27797;DHT22;15177;50.844;4.412;2023-01-29T03:08:38;1.90;99.90
27797;DHT22;15177;50.844;4.412;2023-01-29T03:11:13;1.90;99.90
27797;DHT22;15177;50.844;4.412;2023-01-29T03:13:47;1.90;99.90
27797;DHT22;15177;50.844;4.412;2023-01-29T03:16:25;1.80;99.90
27797;DHT22;15177;50.844;4.412;2023-01-29T03:19:20;1.70;99.90
27797;DHT22;15177;50.844;4.412;2023-01-29T03:21:49;1.60;99.90
27797;DHT22;15177;50.844;4.412;2023-01-29T03:24:33;1.60;99.90
27797;DHT22;15177;50.844;4.412;2023-01-29T03:27:20;1.70;99.90
27797;DHT22;15177;50.844;4.412;2023-01-29T03:30:09;1.80;99.90
27797;DHT22;15177;50.844;4.412;2023-01-29T03:32:58;1.70;99.90
27797;DHT22;15177;50.844;4.412;2023-01-29T03:35:26;1.70;99.90
27797;DHT22;15177;50.844;4.412;2023-01-29T03:38:03;1.70;99.90
27797;DHT22;15177;50.844;4.412;2023-01-29T03:40:45;1.80;99.90
27797;DHT22;15177;50.844;4.412;2023-01-29T03:46:37;1.70;99.90
27797;DHT22;15177;50.844;4.412;2023-01-29T03:52:03;1.70;99.90
27797;DHT22;15177;50.844;4.412;2023-01-29T03:54:43;1.60;99.90
27797;DHT22;15177;50.844;4.412;2023-01-29T03:57:25;1.60;99.90
27797;DHT22;15177;50.844;4.412;2023-01-29T04:00:10;1.60;99.90
27797;DHT22;15177;50.844;4.412;2023-01-29T04:08:23;1.70;99.90
27797;DHT22;15177;50.844;4.412;2023-01-29T04:10:54;1.80;99.90
27797;DHT22;15177;50.844;4.412;2023-01-29T04:13:22;1.70;99.90
27797;DHT22;15177;50.844;4.412;2023-01-29T04:15:57;1.70;99.90
27797;DHT22;15177;50.844;4.412;2023-01-29T04:18:24;1.70;99.90
27797;DHT22;15177;50.844;4.412;2023-01-29T04:20:50;1.70;99.90
27797;DHT22;15177;50.844;4.412;2023-01-29T04:23:26;1.70;99.90
27797;DHT22;15177;50.844;4.412;2023-01-29T04:26:23;1.60;99.90
27797;DHT22;15177;50.844;4.412;2023-01-29T04:29:30;1.50;99.90
27797;DHT22;15177;50.844;4.412;2023-01-29T04:38:06;1.60;99.90
27797;DHT22;15177;50.844;4.412;2023-01-29T04:43:27;1.70;99.90
27797;DHT22;15177;50.844;4.412;2023-01-29T04:46:02;1.70;99.90
27797;DHT22;15177;50.844;4.412;2023-01-29T04:51:24;1.50;99.90
27797;DHT22;15177;50.844;4.412;2023-01-29T04:59:29;1.60;99.90
27797;DHT22;15177;50.844;4.412;2023-01-29T05:01:59;1.60;99.90
27797;DHT22;15177;50.844;4.412;2023-01-29T05:04:27;1.60;99.90
27797;DHT22;15177;50.844;4.412;2023-01-29T05:06:54;1.70;99.90
27797;DHT22;15177;50.844;4.412;2023-01-29T05:09:20;1.70;99.90
27797;DHT22;15177;50.844;4.412;2023-01-29T05:11:47;1.70;99.90
27797;DHT22;15177;50.844;4.412;2023-01-29T05:14:16;1.80;99.90
27797;DHT22;15177;50.844;4.412;2023-01-29T05:16:49;1.90;99.90
27797;DHT22;15177;50.844;4.412;2023-01-29T05:19:16;2.00;99.90
27797;DHT22;15177;50.844;4.412;2023-01-29T05:21:44;2.00;99.90
27797;DHT22;15177;50.844;4.412;2023-01-29T05:26:39;2.30;99.90
27797;DHT22;15177;50.844;4.412;2023-01-29T05:29:23;2.40;99.90
27797;DHT22;15177;50.844;4.412;2023-01-29T05:31:49;2.40;99.90
27797;DHT22;15177;50.844;4.412;2023-01-29T05:34:14;2.50;99.90
27797;DHT22;15177;50.844;4.412;2023-01-29T05:36:40;2.60;99.90
27797;DHT22;15177;50.844;4.412;2023-01-29T05:39:06;2.60;99.90
27797;DHT22;15177;50.844;4.412;2023-01-29T05:41:32;2.50;99.90
27797;DHT22;15177;50.844;4.412;2023-01-29T05:43:58;2.50;99.90
27797;DHT22;15177;50.844;4.412;2023-01-29T05:46:24;2.50;99.90
27797;DHT22;15177;50.844;4.412;2023-01-29T05:48:51;2.50;99.90
27797;DHT22;15177;50.844;4.412;2023-01-29T05:51:17;2.50;99.90
27797;DHT22;15177;50.844;4.412;2023-01-29T05:53:42;2.50;99.90
27797;DHT22;15177;50.844;4.412;2023-01-29T05:56:08;2.40;99.90
27797;DHT22;15177;50.844;4.412;2023-01-29T05:58:34;2.50;99.90
27797;DHT22;15177;50.844;4.412;2023-01-29T06:01:16;2.60;99.90
27797;DHT22;15177;50.844;4.412;2023-01-29T06:03:43;2.50;99.90
27797;DHT22;15177;50.844;4.412;2023-01-29T06:06:08;2.50;99.90
27797;DHT22;15177;50.844;4.412;2023-01-29T06:08:34;2.50;99.90
27797;DHT22;15177;50.844;4.412;2023-01-29T06:11:00;2.60;99.90
27797;DHT22;15177;50.844;4.412;2023-01-29T06:13:25;2.60;99.90
27797;DHT22;15177;50.844;4.412;2023-01-29T06:15:51;2.70;99.90
27797;DHT22;15177;50.844;4.412;2023-01-29T06:18:17;2.70;99.90
27797;DHT22;15177;50.844;4.412;2023-01-29T06:20:42;2.80;99.90
27797;DHT22;15177;50.844;4.412;2023-01-29T06:23:08;2.80;99.90
27797;DHT22;15177;50.844;4.412;2023-01-29T06:25:34;2.80;99.90
27797;DHT22;15177;50.844;4.412;2023-01-29T06:27:59;2.90;99.90
27797;DHT22;15177;50.844;4.412;2023-01-29T06:30:25;2.90;99.90
27797;DHT22;15177;50.844;4.412;2023-01-29T06:32:56;2.90;99.90
27797;DHT22;15177;50.844;4.412;2023-01-29T06:35:26;3.00;99.90
27797;DHT22;15177;50.844;4.412;2023-01-29T06:37:52;2.90;99.90
27797;DHT22;15177;50.844;4.412;2023-01-29T06:40:18;2.90;99.90
27797;DHT22;15177;50.844;4.412;2023-01-29T06:42:44;2.90;99.90
27797;DHT22;15177;50.844;4.412;2023-01-29T06:45:10;3.00;99.90
27797;DHT22;15177;50.844;4.412;2023-01-29T06:47:36;3.00;99.90
27797;DHT22;15177;50.844;4.412;2023-01-29T06:50:02;3.10;99.90
27797;DHT22;15177;50.844;4.412;2023-01-29T06:52:28;3.10;99.90
27797;DHT22;15177;50.844;4.412;2023-01-29T06:54:55;3.10;99.90
27797;DHT22;15177;50.844;4.412;2023-01-29T06:57:21;3.00;99.90
27797;DHT22;15177;50.844;4.412;2023-01-29T06:59:46;3.00;99.90
27797;DHT22;15177;50.844;4.412;2023-01-29T07:02:12;2.90;99.90
27797;DHT22;15177;50.844;4.412;2023-01-29T07:04:40;3.20;99.90
27797;DHT22;15177;50.844;4.412;2023-01-29T07:07:07;3.30;99.90
27797;DHT22;15177;50.844;4.412;2023-01-29T07:09:39;3.30;99.90
27797;DHT22;15177;50.844;4.412;2023-01-29T07:12:07;3.30;99.90
27797;DHT22;15177;50.844;4.412;2023-01-29T07:14:34;3.20;99.90
27797;DHT22;15177;50.844;4.412;2023-01-29T07:16:59;3.20;99.90
27797;DHT22;15177;50.844;4.412;2023-01-29T07:19:25;3.30;99.90
27797;DHT22;15177;50.844;4.412;2023-01-29T07:21:51;3.50;99.90
27797;DHT22;15177;50.844;4.412;2023-01-29T07:24:16;3.40;99.90
27797;DHT22;15177;50.844;4.412;2023-01-29T07:26:43;3.30;99.90
27797;DHT22;15177;50.844;4.412;2023-01-29T07:29:09;3.30;99.90
27797;DHT22;15177;50.844;4.412;2023-01-29T07:31:35;3.40;99.90
27797;DHT22;15177;50.844;4.412;2023-01-29T07:34:01;3.30;99.90
27797;DHT22;15177;50.844;4.412;2023-01-29T07:36:26;3.30;99.90
27797;DHT22;15177;50.844;4.412;2023-01-29T07:38:53;3.30;99.90
27797;DHT22;15177;50.844;4.412;2023-01-29T07:41:18;3.30;99.90
27797;DHT22;15177;50.844;4.412;2023-01-29T07:43:44;3.30;99.90
27797;DHT22;15177;50.844;4.412;2023-01-29T07:46:10;3.40;99.90
27797;DHT22;15177;50.844;4.412;2023-01-29T07:48:35;3.40;99.90
27797;DHT22;15177;50.844;4.412;2023-01-29T07:51:01;3.40;99.90
27797;DHT22;15177;50.844;4.412;2023-01-29T07:53:27;3.60;99.90
27797;DHT22;15177;50.844;4.412;2023-01-29T07:55:53;3.50;99.90
27797;DHT22;15177;50.844;4.412;2023-01-29T07:58:19;3.60;99.90
27797;DHT22;15177;50.844;4.412;2023-01-29T08:00:45;3.70;99.90
27797;DHT22;15177;50.844;4.412;2023-01-29T08:03:16;3.90;99.90
27797;DHT22;15177;50.844;4.412;2023-01-29T08:05:45;3.80;99.90
27797;DHT22;15177;50.844;4.412;2023-01-29T08:08:11;3.80;99.90
27797;DHT22;15177;50.844;4.412;2023-01-29T08:10:39;3.80;99.90
27797;DHT22;15177;50.844;4.412;2023-01-29T08:13:05;3.80;99.90
27797;DHT22;15177;50.844;4.412;2023-01-29T08:15:31;3.70;99.90
27797;DHT22;15177;50.844;4.412;2023-01-29T08:17:57;3.80;99.90
27797;DHT22;15177;50.844;4.412;2023-01-29T08:20:23;3.80;99.90
27797;DHT22;15177;50.844;4.412;2023-01-29T08:22:49;3.90;99.90
27797;DHT22;15177;50.844;4.412;2023-01-29T08:25:15;3.90;99.90
27797;DHT22;15177;50.844;4.412;2023-01-29T08:27:41;3.90;99.90
27797;DHT22;15177;50.844;4.412;2023-01-29T08:30:08;4.00;99.90
27797;DHT22;15177;50.844;4.412;2023-01-29T08:32:34;4.00;99.90
27797;DHT22;15177;50.844;4.412;2023-01-29T08:34:59;4.00;99.90
27797;DHT22;15177;50.844;4.412;2023-01-29T08:37:25;3.90;99.90
27797;DHT22;15177;50.844;4.412;2023-01-29T08:39:51;4.00;99.90
27797;DHT22;15177;50.844;4.412;2023-01-29T08:42:16;4.10;99.90
27797;DHT22;15177;50.844;4.412;2023-01-29T08:44:42;4.20;99.90
27797;DHT22;15177;50.844;4.412;2023-01-29T08:47:08;4.10;99.90
27797;DHT22;15177;50.844;4.412;2023-01-29T08:49:33;4.20;99.90
27797;DHT22;15177;50.844;4.412;2023-01-29T08:51:59;4.30;99.90
27797;DHT22;15177;50.844;4.412;2023-01-29T08:54:25;4.40;99.90
27797;DHT22;15177;50.844;4.412;2023-01-29T08:56:51;4.40;99.90
27797;DHT22;15177;50.844;4.412;2023-01-29T08:59:16;4.50;99.90
27797;DHT22;15177;50.844;4.412;2023-01-29T09:01:42;4.50;99.90
27797;DHT22;15177;50.844;4.412;2023-01-29T09:04:08;4.50;99.90
27797;DHT22;15177;50.844;4.412;2023-01-29T09:06:34;4.50;99.90
27797;DHT22;15177;50.844;4.412;2023-01-29T09:09:00;4.60;99.90
27797;DHT22;15177;50.844;4.412;2023-01-29T09:11:25;4.60;99.90
27797;DHT22;15177;50.844;4.412;2023-01-29T09:13:51;4.80;99.90
27797;DHT22;15177;50.844;4.412;2023-01-29T09:16:17;4.70;99.90
27797;DHT22;15177;50.844;4.412;2023-01-29T09:18:43;4.70;99.90
27797;DHT22;15177;50.844;4.412;2023-01-29T09:21:09;4.80;99.90
27797;DHT22;15177;50.844;4.412;2023-01-29T09:23:34;4.70;99.90
27797;DHT22;15177;50.844;4.412;2023-01-29T09:26:01;4.90;99.90
27797;DHT22;15177;50.844;4.412;2023-01-29T09:28:26;5.00;99.90
27797;DHT22;15177;50.844;4.412;2023-01-29T09:30:52;4.90;99.90
27797;DHT22;15177;50.844;4.412;2023-01-29T09:33:18;4.80;99.90
27797;DHT22;15177;50.844;4.412;2023-01-29T09:35:44;4.90;99.90
27797;DHT22;15177;50.844;4.412;2023-01-29T09:38:13;4.90;99.90
27797;DHT22;15177;50.844;4.412;2023-01-29T09:43:29;4.90;99.90
27797;DHT22;15177;50.844;4.412;2023-01-29T09:46:03;4.80;99.90
27797;DHT22;15177;50.844;4.412;2023-01-29T09:48:32;4.90;99.90
27797;DHT22;15177;50.844;4.412;2023-01-29T09:51:02;4.90;99.90
27797;DHT22;15177;50.844;4.412;2023-01-29T09:53:39;5.00;99.90
27797;DHT22;15177;50.844;4.412;2023-01-29T09:58:38;4.70;99.90
27797;DHT22;15177;50.844;4.412;2023-01-29T10:04:20;4.70;99.90
27797;DHT22;15177;50.844;4.412;2023-01-29T10:12:36;4.90;99.90
27797;DHT22;15177;50.844;4.412;2023-01-29T10:25:43;5.10;99.90
27797;DHT22;15177;50.844;4.412;2023-01-29T10:31:13;5.10;99.90
27797;DHT22;15177;50.844;4.412;2023-01-29T10:33:42;5.20;99.90
27797;DHT22;15177;50.844;4.412;2023-01-29T10:36:22;5.30;99.90
27797;DHT22;15177;50.844;4.412;2023-01-29T10:38:50;5.20;99.90
27797;DHT22;15177;50.844;4.412;2023-01-29T10:41:41;5.20;99.90
27797;DHT22;15177;50.844;4.412;2023-01-29T10:47:53;5.10;99.90
27797;DHT22;15177;50.844;4.412;2023-01-29T10:50:51;5.00;99.90
27797;DHT22;15177;50.844;4.412;2023-01-29T10:56:08;5.10;99.90
27797;DHT22;15177;50.844;4.412;2023-01-29T10:58:59;5.20;99.90
27797;DHT22;15177;50.844;4.412;2023-01-29T11:01:26;5.20;99.90
27797;DHT22;15177;50.844;4.412;2023-01-29T11:03:57;5.20;99.90
27797;DHT22;15177;50.844;4.412;2023-01-29T11:06:34;5.20;99.90
27797;DHT22;15177;50.844;4.412;2023-01-29T11:11:53;5.40;99.90
27797;DHT22;15177;50.844;4.412;2023-01-29T11:14:57;5.50;99.90
27797;DHT22;15177;50.844;4.412;2023-01-29T11:17:25;5.40;99.90
27797;DHT22;15177;50.844;4.412;2023-01-29T11:19:52;5.50;99.90
27797;DHT22;15177;50.844;4.412;2023-01-29T11:22:25;5.50;99.90
27797;DHT22;15177;50.844;4.412;2023-01-29T11:27:42;5.40;99.90
27797;DHT22;15177;50.844;4.412;2023-01-29T11:30:36;5.40;99.90
27797;DHT22;15177;50.844;4.412;2023-01-29T11:33:17;5.40;99.90
27797;DHT22;15177;50.844;4.412;2023-01-29T11:35:44;5.40;99.90
27797;DHT22;15177;50.844;4.412;2023-01-29T11:38:20;5.40;99.90
27797;DHT22;15177;50.844;4.412;2023-01-29T11:40:47;5.40;99.90
27797;DHT22;15177;50.844;4.412;2023-01-29T11:43:19;5.40;99.90
27797;DHT22;15177;50.844;4.412;2023-01-29T11:45:47;5.50;99.90
27797;DHT22;15177;50.844;4.412;2023-01-29T11:48:16;5.60;99.90
27797;DHT22;15177;50.844;4.412;2023-01-29T11:50:42;5.60;99.90
27797;DHT22;15177;50.844;4.412;2023-01-29T11:55:59;5.70;99.90
27797;DHT22;15177;50.844;4.412;2023-01-29T11:58:29;5.60;99.90
27797;DHT22;15177;50.844;4.412;2023-01-29T12:00:57;5.70;99.90
27797;DHT22;15177;50.844;4.412;2023-01-29T12:03:33;5.80;99.90
27797;DHT22;15177;50.844;4.412;2023-01-29T12:08:34;5.90;99.90
27797;DHT22;15177;50.844;4.412;2023-01-29T12:11:28;5.90;99.90
27797;DHT22;15177;50.844;4.412;2023-01-29T12:14:02;5.90;99.90
27797;DHT22;15177;50.844;4.412;2023-01-29T12:19:14;6.10;99.90
27797;DHT22;15177;50.844;4.412;2023-01-29T12:22:15;6.10;99.90
27797;DHT22;15177;50.844;4.412;2023-01-29T12:24:55;6.10;99.90
27797;DHT22;15177;50.844;4.412;2023-01-29T12:27:38;6.10;99.90
27797;DHT22;15177;50.844;4.412;2023-01-29T12:30:26;6.20;99.90
27797;DHT22;15177;50.844;4.412;2023-01-29T12:35:42;6.20;99.90
27797;DHT22;15177;50.844;4.412;2023-01-29T12:38:23;6.20;99.90
27797;DHT22;15177;50.844;4.412;2023-01-29T12:41:08;6.20;99.90
27797;DHT22;15177;50.844;4.412;2023-01-29T12:43:49;6.40;99.90
27797;DHT22;15177;50.844;4.412;2023-01-29T12:46:26;6.30;99.90
27797;DHT22;15177;50.844;4.412;2023-01-29T12:48:55;6.30;99.90
27797;DHT22;15177;50.844;4.412;2023-01-29T12:51:30;6.30;99.90
27797;DHT22;15177;50.844;4.412;2023-01-29T12:54:12;6.30;99.90
27797;DHT22;15177;50.844;4.412;2023-01-29T12:56:56;6.30;99.90
27797;DHT22;15177;50.844;4.412;2023-01-29T12:59:35;6.30;99.90
27797;DHT22;15177;50.844;4.412;2023-01-29T13:02:20;6.30;99.90
27797;DHT22;15177;50.844;4.412;2023-01-29T13:05:13;6.20;99.90
27797;DHT22;15177;50.844;4.412;2023-01-29T13:07:42;6.20;99.90
27797;DHT22;15177;50.844;4.412;2023-01-29T13:10:19;6.20;99.90
27797;DHT22;15177;50.844;4.412;2023-01-29T13:15:38;6.30;99.90
27797;DHT22;15177;50.844;4.412;2023-01-29T13:21:03;6.40;99.90
27797;DHT22;15177;50.844;4.412;2023-01-29T13:23:56;6.40;99.90
27797;DHT22;15177;50.844;4.412;2023-01-29T13:26:24;6.30;99.90
27797;DHT22;15177;50.844;4.412;2023-01-29T13:28:51;6.20;99.90
27797;DHT22;15177;50.844;4.412;2023-01-29T13:36:29;6.10;99.90
27797;DHT22;15177;50.844;4.412;2023-01-29T13:39:07;6.20;99.90
27797;DHT22;15177;50.844;4.412;2023-01-29T13:41:40;6.10;99.90
27797;DHT22;15177;50.844;4.412;2023-01-29T13:44:32;6.20;99.90
27797;DHT22;15177;50.844;4.412;2023-01-29T13:47:04;6.30;99.90
27797;DHT22;15177;50.844;4.412;2023-01-29T13:52:23;6.20;99.90
27797;DHT22;15177;50.844;4.412;2023-01-29T13:54:57;6.20;99.90
27797;DHT22;15177;50.844;4.412;2023-01-29T14:10:43;6.20;99.90
27797;DHT22;15177;50.844;4.412;2023-01-29T14:18:25;6.30;99.90
27797;DHT22;15177;50.844;4.412;2023-01-29T14:20:53;6.20;99.90
27797;DHT22;15177;50.844;4.412;2023-01-29T14:23:26;6.10;99.90
27797;DHT22;15177;50.844;4.412;2023-01-29T14:25:54;6.10;99.90
27797;DHT22;15177;50.844;4.412;2023-01-29T14:28:23;5.90;99.90
27797;DHT22;15177;50.844;4.412;2023-01-29T14:30:50;5.90;99.90
27797;DHT22;15177;50.844;4.412;2023-01-29T14:33:36;6.00;99.90
27797;DHT22;15177;50.844;4.412;2023-01-29T14:36:12;5.90;99.90
27797;DHT22;15177;50.844;4.412;2023-01-29T14:38:45;5.90;99.90
27797;DHT22;15177;50.844;4.412;2023-01-29T14:41:32;5.90;99.90
27797;DHT22;15177;50.844;4.412;2023-01-29T14:47:01;6.00;99.90
27797;DHT22;15177;50.844;4.412;2023-01-29T14:49:56;6.00;99.90
27797;DHT22;15177;50.844;4.412;2023-01-29T14:52:40;6.00;99.90
27797;DHT22;15177;50.844;4.412;2023-01-29T14:55:14;5.90;99.90
27797;DHT22;15177;50.844;4.412;2023-01-29T14:57:43;5.80;99.90
27797;DHT22;15177;50.844;4.412;2023-01-29T15:00:27;5.80;99.90
27797;DHT22;15177;50.844;4.412;2023-01-29T15:02:53;5.80;99.90
27797;DHT22;15177;50.844;4.412;2023-01-29T15:05:24;5.80;99.90
27797;DHT22;15177;50.844;4.412;2023-01-29T15:08:11;5.70;99.90
27797;DHT22;15177;50.844;4.412;2023-01-29T15:10:42;5.70;99.90
27797;DHT22;15177;50.844;4.412;2023-01-29T15:13:25;5.80;99.90
27797;DHT22;15177;50.844;4.412;2023-01-29T15:16:30;5.80;99.90
27797;DHT22;15177;50.844;4.412;2023-01-29T15:18:51;5.80;99.90
27797;DHT22;15177;50.844;4.412;2023-01-29T15:21:19;5.60;99.90
27797;DHT22;15177;50.844;4.412;2023-01-29T15:23:46;5.50;99.90
27797;DHT22;15177;50.844;4.412;2023-01-29T15:26:20;5.50;99.90
27797;DHT22;15177;50.844;4.412;2023-01-29T15:28:57;5.60;99.90
27797;DHT22;15177;50.844;4.412;2023-01-29T15:31:24;5.50;99.90
27797;DHT22;15177;50.844;4.412;2023-01-29T15:33:52;5.60;99.90
27797;DHT22;15177;50.844;4.412;2023-01-29T15:36:24;5.40;99.90
27797;DHT22;15177;50.844;4.412;2023-01-29T15:39:20;5.40;99.90
27797;DHT22;15177;50.844;4.412;2023-01-29T15:41:47;5.50;99.90
27797;DHT22;15177;50.844;4.412;2023-01-29T15:44:20;5.50;99.90
27797;DHT22;15177;50.844;4.412;2023-01-29T15:46:53;5.50;99.90
27797;DHT22;15177;50.844;4.412;2023-01-29T15:49:31;5.40;99.90
27797;DHT22;15177;50.844;4.412;2023-01-29T15:52:03;5.40;99.90
27797;DHT22;15177;50.844;4.412;2023-01-29T15:54:31;5.40;99.90
27797;DHT22;15177;50.844;4.412;2023-01-29T15:56:58;5.40;99.90
27797;DHT22;15177;50.844;4.412;2023-01-29T15:59:30;5.40;99.90
27797;DHT22;15177;50.844;4.412;2023-01-29T16:02:31;5.40;99.90
27797;DHT22;15177;50.844;4.412;2023-01-29T16:04:57;5.30;99.90
27797;DHT22;15177;50.844;4.412;2023-01-29T16:07:23;5.30;99.90
27797;DHT22;15177;50.844;4.412;2023-01-29T16:09:50;5.30;99.90
27797;DHT22;15177;50.844;4.412;2023-01-29T16:12:18;5.30;99.90
27797;DHT22;15177;50.844;4.412;2023-01-29T16:14:44;5.30;99.90
27797;DHT22;15177;50.844;4.412;2023-01-29T16:17:25;5.30;99.90
27797;DHT22;15177;50.844;4.412;2023-01-29T16:19:59;5.30;99.90
27797;DHT22;15177;50.844;4.412;2023-01-29T16:22:29;5.30;99.90
27797;DHT22;15177;50.844;4.412;2023-01-29T16:25:00;5.30;99.90
27797;DHT22;15177;50.844;4.412;2023-01-29T16:27:28;5.20;99.90
27797;DHT22;15177;50.844;4.412;2023-01-29T16:29:54;5.00;99.90
27797;DHT22;15177;50.844;4.412;2023-01-29T16:32:20;5.00;99.90
27797;DHT22;15177;50.844;4.412;2023-01-29T16:34:46;5.00;99.90
27797;DHT22;15177;50.844;4.412;2023-01-29T16:37:26;4.90;99.90
27797;DHT22;15177;50.844;4.412;2023-01-29T16:39:52;4.90;99.90
27797;DHT22;15177;50.844;4.412;2023-01-29T16:42:21;4.90;99.90
27797;DHT22;15177;50.844;4.412;2023-01-29T16:45:03;4.90;99.90
27797;DHT22;15177;50.844;4.412;2023-01-29T16:47:41;5.00;99.90
27797;DHT22;15177;50.844;4.412;2023-01-29T16:50:29;5.00;99.90
27797;DHT22;15177;50.844;4.412;2023-01-29T16:53:18;5.00;99.90
27797;DHT22;15177;50.844;4.412;2023-01-29T16:55:46;4.90;99.90
27797;DHT22;15177;50.844;4.412;2023-01-29T16:58:14;5.00;99.90
27797;DHT22;15177;50.844;4.412;2023-01-29T17:00:53;5.00;99.90
27797;DHT22;15177;50.844;4.412;2023-01-29T17:03:24;5.00;99.90
27797;DHT22;15177;50.844;4.412;2023-01-29T17:05:52;4.90;99.90
27797;DHT22;15177;50.844;4.412;2023-01-29T17:08:29;4.90;99.90
27797;DHT22;15177;50.844;4.412;2023-01-29T17:10:55;5.00;99.90
27797;DHT22;15177;50.844;4.412;2023-01-29T17:13:27;5.00;99.90
27797;DHT22;15177;50.844;4.412;2023-01-29T17:15:59;5.00;99.90
27797;DHT22;15177;50.844;4.412;2023-01-29T17:18:27;5.00;99.90
27797;DHT22;15177;50.844;4.412;2023-01-29T17:20:53;5.00;99.90
27797;DHT22;15177;50.844;4.412;2023-01-29T17:23:19;5.00;99.90
27797;DHT22;15177;50.844;4.412;2023-01-29T17:25:46;4.90;99.90
27797;DHT22;15177;50.844;4.412;2023-01-29T17:28:13;4.90;99.90
27797;DHT22;15177;50.844;4.412;2023-01-29T17:30:39;5.00;99.90
27797;DHT22;15177;50.844;4.412;2023-01-29T17:33:13;5.00;99.90
27797;DHT22;15177;50.844;4.412;2023-01-29T17:35:40;5.10;99.90
27797;DHT22;15177;50.844;4.412;2023-01-29T17:38:10;5.10;99.90
27797;DHT22;15177;50.844;4.412;2023-01-29T17:40:58;5.10;99.90
27797;DHT22;15177;50.844;4.412;2023-01-29T17:43:24;5.10;99.90
27797;DHT22;15177;50.844;4.412;2023-01-29T17:45:50;5.10;99.90
27797;DHT22;15177;50.844;4.412;2023-01-29T17:48:24;5.10;99.90
27797;DHT22;15177;50.844;4.412;2023-01-29T17:50:52;5.00;99.90
27797;DHT22;15177;50.844;4.412;2023-01-29T17:53:24;5.00;99.90
27797;DHT22;15177;50.844;4.412;2023-01-29T17:55:50;4.90;99.90
27797;DHT22;15177;50.844;4.412;2023-01-29T17:58:24;4.80;99.90
27797;DHT22;15177;50.844;4.412;2023-01-29T18:00:52;4.90;99.90
27797;DHT22;15177;50.844;4.412;2023-01-29T18:03:18;4.90;99.90
27797;DHT22;15177;50.844;4.412;2023-01-29T18:05:46;5.00;99.90
27797;DHT22;15177;50.844;4.412;2023-01-29T18:11:01;5.00;99.90
27797;DHT22;15177;50.844;4.412;2023-01-29T18:13:27;5.00;99.90
27797;DHT22;15177;50.844;4.412;2023-01-29T18:15:53;5.00;99.90
27797;DHT22;15177;50.844;4.412;2023-01-29T18:18:20;5.10;99.90
27797;DHT22;15177;50.844;4.412;2023-01-29T18:20:46;5.00;99.90
27797;DHT22;15177;50.844;4.412;2023-01-29T18:23:13;5.00;99.90
27797;DHT22;15177;50.844;4.412;2023-01-29T18:25:39;4.90;99.90
27797;DHT22;15177;50.844;4.412;2023-01-29T18:28:08;5.00;99.90